sim
Sign-in with your pilot id or email,
or register
Callsign
Passwort

Schedule Details

Flight Number: DLH2455
Departure: Oslo Gardermoen Airport (ENGM) at 17:35
Arrival: Munich Airport (EDDM) at 19:55
Route: Lufthansa Passenger Schedule. Enter filed route here before submitting Pirep.

Weather Information
Getting current METAR information for ENGM 250720Z 36004KT 330V030 CAVOK 05/04 Q1002 NOSIG
Getting current METAR information for EDDM 250720Z 28017G27KT 4500 SHRA FEW008 SCT020CB BKN040 11/09 Q1001 BECMG 25010KT 7000 NSW

Schedule Frequency

Route Map